This is the latest recevied weather packets stored in our database for station/object HB9GFF-10. If no packets are shown the sender has not sent any weather packets the latest 10 day(s).
| Time | Temp. | Humidity | Pressure | Rain* | Wind** | Luminosity | Snow |
|---|---|---|---|---|---|---|---|
| 1777461824 | 20° C | 50% | 955 hPa | - | - | - | - |
| 1777461758 | 20.56° C | 53% | 955 hPa | - | - | - | - |
| 1777461693 | 20° C | 53% | 955 hPa | - | - | - | - |
| 1777461627 | 20° C | 55% | 955 hPa | - | - | - | - |
| 1777461562 | 20° C | 54% | 955 hPa | - | - | - | - |
| 1777461497 | 20° C | 58% | 955 hPa | - | - | - | - |
| 1777461431 | 19.44° C | 52% | 955 hPa | - | - | - | - |
| 1777461366 | 19.44° C | 49% | 955 hPa | - | - | - | - |
| 1777461300 | 19.44° C | 52% | 955 hPa | - | - | - | - |
| 1777461235 | 19.44° C | 55% | 955 hPa | - | - | - | - |
| 1777461170 | 18.89° C | 56% | 955 hPa | - | - | - | - |
| 1777461104 | 18.89° C | 54% | 955 hPa | - | - | - | - |
| 1777461039 | 18.89° C | 55% | 955 hPa | - | - | - | - |
| 1777460973 | 19.44° C | 56% | 955 hPa | - | - | - | - |
| 1777460908 | 18.89° C | 50% | 955 hPa | - | - | - | - |
| 1777460843 | 18.89° C | 51% | 955 hPa | - | - | - | - |
| 1777460777 | 18.89° C | 55% | 955 hPa | - | - | - | - |
| 1777460712 | 18.89° C | 58% | 955 hPa | - | - | - | - |
| 1777460647 | 18.33° C | 55% | 955 hPa | - | - | - | - |
| 1777460581 | 18.33° C | 58% | 955 hPa | - | - | - | - |
| 1777460516 | 18.33° C | 53% | 955 hPa | - | - | - | - |
| 1777460450 | 18.89° C | 58% | 955 hPa | - | - | - | - |
| 1777460385 | 18.33° C | 52% | 955 hPa | - | - | - | - |
| 1777460320 | 18.33° C | 50% | 955 hPa | - | - | - | - |
| 1777460254 | 18.33° C | 52% | 955 hPa | - | - | - | - |
* Rain since midnight (hover to see other rain measurements)
** Current wind speed in m/s (hover to see current wind gust speed)